Station: EBLG - 21/02/2020 20:50Z (il y a 35 minutes)
EBLG 212050Z 21015KT 9999 FEW034 06/01 Q1026 NOSIG
Vent du 210º - 15 kt
Visibilité > 10 km
Nuages épars à 3400 pieds
Température: +06ºC - Point de rosée: +01ºC - QNH: 1026 hPa
Pas de changement significatif prévu dans les 2 heures qui suivent l'observation